Time;durP1;ratioP1;P1;durP2;ratioP2;P2;SDS_P1;SDS_P2;PMS_P1;PMS_P2;Temp;Humidity;BMP_temperature;BMP_pressure;BME280_temperature;BME280_humidity;BME280_pressure;Samples;Min_cycle;Max_cycle;Signal;HPM_P1;HPM_P2
2022/10/09 00:01:12;;;;;;;6.45;3.25;;;;;;;9.82;65.84;102451.28;6215698;23;20028;-65
2022/10/09 00:03:39;;;;;;;6.60;3.83;;;;;;;9.86;65.81;102466.41;6215848;23;20000;-63
2022/10/09 00:06:06;;;;;;;7.10;3.78;;;;;;;9.93;65.96;102461.41;6215531;23;20004;-64
2022/10/09 00:08:33;;;;;;;8.43;3.90;;;;;;;10.09;65.75;102467.31;6216003;23;20041;-64
2022/10/09 00:10:58;;;;;;;8.35;4.18;;;;;;;10.19;65.54;102473.03;6219083;23;20059;-63
2022/10/09 00:13:23;;;;;;;9.98;4.13;;;;;;;10.27;65.56;102473.31;6219243;23;20449;-63
2022/10/09 00:15:49;;;;;;;7.30;3.72;;;;;;;10.22;64.60;102467.81;6218896;23;20382;-63
2022/10/09 00:18:17;;;;;;;11.02;4.10;;;;;;;9.97;65.33;102467.72;6218760;23;20084;-64
2022/10/09 00:20:45;;;;;;;9.13;4.20;;;;;;;9.89;65.83;102466.50;6219043;23;20004;-62
2022/10/09 00:23:16;;;;;;;9.10;4.25;;;;;;;9.75;66.06;102464.22;6219334;23;20072;-64
2022/10/09 00:25:53;;;;;;;6.50;3.85;;;;;;;9.61;66.13;102470.69;6219401;23;20327;-64
2022/10/09 00:28:19;;;;;;;6.00;3.97;;;;;;;9.49;66.77;102471.09;6218980;23;20012;-64
2022/10/09 00:30:45;;;;;;;6.30;3.80;;;;;;;9.49;66.74;102464.91;6219279;23;20087;-64
2022/10/09 00:33:10;;;;;;;7.32;4.00;;;;;;;9.47;66.76;102469.25;6218874;23;20150;-63
2022/10/09 00:35:39;;;;;;;7.88;4.20;;;;;;;9.48;67.79;102466.66;6218928;23;20009;-64
2022/10/09 00:38:05;;;;;;;8.80;3.97;;;;;;;9.52;67.43;102472.97;6218544;23;20032;-63
2022/10/09 00:40:31;;;;;;;9.43;4.28;;;;;;;9.61;66.72;102478.63;6217324;23;20004;-63
2022/10/09 00:42:57;;;;;;;6.47;4.00;;;;;;;9.63;65.89;102457.56;6218904;23;20011;-63
2022/10/09 00:45:23;;;;;;;6.70;3.90;;;;;;;9.58;66.16;102469.66;6218876;23;20009;-64
2022/10/09 00:47:53;;;;;;;7.22;4.03;;;;;;;9.61;65.69;102464.53;6218792;23;20066;-62
2022/10/09 00:50:22;;;;;;;9.45;4.28;;;;;;;9.57;65.79;102463.50;6218872;23;20020;-63
2022/10/09 00:52:53;;;;;;;8.73;4.70;;;;;;;9.51;66.41;102463.25;6219177;23;20004;-63
2022/10/09 00:55:21;;;;;;;7.88;4.45;;;;;;;9.44;66.20;102467.38;6218933;23;20378;-64
2022/10/09 00:57:47;;;;;;;9.82;4.30;;;;;;;9.50;66.64;102467.59;6218864;23;20058;-62
2022/10/09 01:00:13;;;;;;;7.85;4.13;;;;;;;9.63;66.29;102471.66;6192416;23;20012;-63
2022/10/09 01:02:38;;;;;;;9.05;4.43;;;;;;;9.75;65.75;102461.59;6218784;23;20004;-63
2022/10/09 01:05:05;;;;;;;7.70;4.28;;;;;;;9.83;64.87;102471.56;6218800;23;20015;-63
2022/10/09 01:08:04;;;;;;;6.10;4.00;;;;;;;9.91;65.31;102464.84;6218347;23;20331;-63
2022/10/09 01:10:36;;;;;;;9.27;4.30;;;;;;;9.93;65.02;102463.16;6218789;23;20427;-62
2022/10/09 01:13:18;;;;;;;7.25;3.92;;;;;;;9.90;64.22;102455.13;6219047;23;20004;-63
2022/10/09 01:15:52;;;;;;;5.50;3.78;;;;;;;9.77;64.56;102456.41;6218774;23;20422;-62
2022/10/09 01:18:45;;;;;;;5.93;3.50;;;;;;;9.58;64.83;102461.75;6218542;23;20021;-64
2022/10/09 01:21:16;;;;;;;8.02;3.88;;;;;;;9.32;65.55;102455.41;6217354;23;20036;-62
2022/10/09 01:23:50;;;;;;;11.18;4.35;;;;;;;9.17;66.25;102456.56;6217530;23;20008;-64
2022/10/09 01:26:56;;;;;;;9.52;3.85;;;;;;;9.16;66.11;102460.03;6217176;23;20374;-65
2022/10/09 01:29:26;;;;;;;5.78;3.47;;;;;;;9.16;66.20;102453.84;6217021;23;20335;-64
2022/10/09 01:31:53;;;;;;;6.45;3.58;;;;;;;9.19;66.26;102456.63;6217049;23;20012;-63
2022/10/09 01:34:19;;;;;;;6.43;3.58;;;;;;;9.09;66.41;102455.34;6190747;23;20015;-64
2022/10/09 01:36:46;;;;;;;7.88;3.90;;;;;;;8.94;66.31;102452.03;6217137;23;20008;-63
2022/10/09 01:39:20;;;;;;;9.13;3.85;;;;;;;8.71;67.65;102449.31;6216984;23;20091;-64
2022/10/09 01:41:49;;;;;;;11.32;4.18;;;;;;;8.55;68.72;102452.09;6191152;23;20028;-63
2022/10/09 01:44:28;;;;;;;8.15;4.40;;;;;;;8.50;68.52;102446.63;6216973;23;20015;-65
2022/10/09 01:46:54;;;;;;;7.53;4.63;;;;;;;8.45;68.36;102442.00;6216933;23;20011;-63
2022/10/09 01:49:44;;;;;;;7.93;4.25;;;;;;;8.51;68.13;102443.16;6217000;23;20004;-64
2022/10/09 01:52:24;;;;;;;8.50;4.35;;;;;;;8.66;67.76;102445.59;6216893;23;20005;-63
2022/10/09 01:55:09;;;;;;;6.97;4.32;;;;;;;8.69;67.00;102432.53;6215286;23;20009;-62
2022/10/09 01:57:50;;;;;;;6.63;3.88;;;;;;;8.76;67.42;102431.06;6216897;23;20011;-64
2022/10/09 02:00:15;;;;;;;6.00;3.67;;;;;;;8.82;66.78;102430.41;6216627;23;20000;-65
2022/10/09 02:02:42;;;;;;;11.60;4.38;;;;;;;8.88;66.11;102430.69;6216814;23;20067;-64
2022/10/09 02:05:11;;;;;;;7.70;4.10;;;;;;;8.92;66.19;102430.00;6216668;23;20031;-63
2022/10/09 02:07:37;;;;;;;8.45;3.75;;;;;;;8.88;65.97;102418.41;6216363;23;20076;-63
2022/10/09 02:10:04;;;;;;;6.43;3.63;;;;;;;8.89;65.71;102420.22;6217024;23;20055;-64
2022/10/09 02:12:33;;;;;;;10.02;3.85;;;;;;;8.88;65.45;102414.88;6216607;23;20001;-64
2022/10/09 02:14:59;;;;;;;7.30;4.07;;;;;;;8.83;65.84;102424.34;6216683;23;20330;-64
2022/10/09 02:17:32;;;;;;;9.32;4.07;;;;;;;8.67;65.83;102415.75;6216371;23;20037;-63
2022/10/09 02:20:05;;;;;;;6.65;3.50;;;;;;;8.59;66.76;102417.16;6216681;23;20062;-63
2022/10/09 02:22:32;;;;;;;8.15;3.95;;;;;;;8.51;66.68;102419.44;6216679;23;20011;-64
2022/10/09 02:25:01;;;;;;;5.65;3.83;;;;;;;8.46;67.11;102406.91;6216633;23;20028;-64
2022/10/09 02:27:27;;;;;;;7.60;4.00;;;;;;;8.49;67.53;102412.31;6216417;23;20008;-63
2022/10/09 02:29:53;;;;;;;6.32;3.85;;;;;;;8.53;67.26;102412.53;6216781;23;20008;-63
2022/10/09 02:32:19;;;;;;;7.70;4.00;;;;;;;8.55;67.59;102407.31;6215991;23;20324;-64
2022/10/09 02:34:44;;;;;;;8.63;4.10;;;;;;;8.61;66.02;102409.28;6216417;23;20007;-63
2022/10/09 02:37:10;;;;;;;6.28;3.92;;;;;;;8.66;66.39;102408.69;6216183;23;20009;-63
2022/10/09 02:39:35;;;;;;;7.07;3.70;;;;;;;8.64;66.40;102405.06;6216685;23;20012;-64
2022/10/09 02:42:02;;;;;;;7.68;4.00;;;;;;;8.60;65.27;102405.75;6216287;23;20070;-65
2022/10/09 02:44:27;;;;;;;7.90;4.15;;;;;;;8.62;66.64;102404.13;6216639;23;20083;-64
2022/10/09 02:46:53;;;;;;;8.60;4.20;;;;;;;8.63;66.43;102405.00;6189668;23;20036;-63
2022/10/09 02:49:18;;;;;;;9.63;4.43;;;;;;;8.58;66.28;102398.66;6216250;23;20008;-64
2022/10/09 02:51:43;;;;;;;8.45;3.97;;;;;;;8.54;66.48;102400.25;6216237;23;20327;-63
2022/10/09 02:54:09;;;;;;;7.65;4.40;;;;;;;8.49;66.44;102409.69;6216543;23;20023;-64
2022/10/09 02:56:35;;;;;;;6.03;3.83;;;;;;;8.33;66.92;102399.25;6216282;23;20339;-64
2022/10/09 02:59:00;;;;;;;7.50;3.88;;;;;;;8.29;66.36;102393.84;6216481;23;20051;-63
2022/10/09 03:01:26;;;;;;;6.75;3.67;;;;;;;8.31;66.85;102396.56;6216203;23;20005;-64
2022/10/09 03:03:52;;;;;;;7.90;4.20;;;;;;;8.32;66.76;102395.72;6216454;23;20079;-64
2022/10/09 03:06:25;;;;;;;7.55;4.10;;;;;;;8.23;66.87;102397.94;6216003;23;20466;-63
2022/10/09 03:08:51;;;;;;;9.43;3.85;;;;;;;8.20;66.72;102401.34;6215865;23;20000;-62
2022/10/09 03:11:18;;;;;;;9.70;5.30;;;;;;;8.22;68.21;102406.66;6216400;23;20039;-63
2022/10/09 03:13:44;;;;;;;5.47;3.42;;;;;;;8.47;70.99;102404.31;6216148;23;20088;-63
2022/10/09 03:16:15;;;;;;;7.93;3.90;;;;;;;8.38;68.83;102396.00;6215953;23;20466;-64
2022/10/09 03:18:40;;;;;;;7.53;4.00;;;;;;;8.42;68.46;102397.97;6215939;23;20378;-62
2022/10/09 03:21:07;;;;;;;8.25;4.03;;;;;;;8.50;69.73;102390.41;6216020;23;20008;-64
2022/10/09 03:23:33;;;;;;;7.50;3.85;;;;;;;8.57;67.88;102391.59;6215999;23;20012;-62
2022/10/09 03:26:01;;;;;;;10.70;4.32;;;;;;;8.57;68.06;102395.13;6216188;23;20088;-63
2022/10/09 03:28:27;;;;;;;8.88;4.20;;;;;;;8.57;66.73;102392.47;6215867;23;20075;-64
2022/10/09 03:30:53;;;;;;;5.82;3.95;;;;;;;8.49;67.05;102383.34;6215904;23;20001;-64
2022/10/09 03:33:18;;;;;;;9.45;4.20;;;;;;;8.51;68.08;102379.03;6216259;23;20012;-63
2022/10/09 03:35:48;;;;;;;6.78;4.30;;;;;;;8.41;67.31;102387.38;6215839;23;20004;-64
2022/10/09 03:38:14;;;;;;;9.32;3.83;;;;;;;8.24;66.77;102384.84;6215517;23;20019;-64
2022/10/09 03:40:39;;;;;;;9.70;3.90;;;;;;;8.22;68.06;102382.97;6215739;23;20373;-64
2022/10/09 03:43:05;;;;;;;7.88;3.90;;;;;;;8.21;67.29;102375.91;6189259;23;20079;-63
2022/10/09 03:45:31;;;;;;;6.95;3.75;;;;;;;8.13;67.76;102379.91;6215753;23;20079;-64
2022/10/09 03:47:57;;;;;;;7.10;4.13;;;;;;;8.04;68.19;102377.75;6215757;23;20009;-65
2022/10/09 03:50:22;;;;;;;6.15;3.60;;;;;;;7.92;68.40;102378.13;6189776;23;20036;-63
2022/10/09 03:52:47;;;;;;;6.45;3.97;;;;;;;7.90;67.95;102385.03;6215815;23;20074;-64
2022/10/09 03:55:13;;;;;;;7.20;4.15;;;;;;;7.93;67.82;102384.28;6216073;23;20008;-64
2022/10/09 03:57:38;;;;;;;7.03;4.20;;;;;;;7.91;68.75;102380.66;6215699;23;20316;-63
2022/10/09 04:00:05;;;;;;;6.25;4.03;;;;;;;7.83;67.98;102387.31;6215750;23;20001;-65
2022/10/09 04:02:31;;;;;;;7.25;3.90;;;;;;;7.80;68.77;102381.91;6216073;23;20009;-64
2022/10/09 04:04:56;;;;;;;8.25;4.10;;;;;;;7.82;68.87;102386.41;6215703;23;20008;-62
2022/10/09 04:07:22;;;;;;;8.07;4.25;;;;;;;7.84;69.88;102395.28;6215243;23;20096;-63
2022/10/09 04:09:47;;;;;;;7.25;3.95;;;;;;;7.84;67.94;102397.03;6215953;23;20011;-64
2022/10/09 04:12:13;;;;;;;7.32;3.90;;;;;;;7.78;68.21;102392.34;6215556;23;20015;-64
2022/10/09 04:14:38;;;;;;;6.70;3.97;;;;;;;7.75;67.90;102392.19;6215614;23;20013;-63
2022/10/09 04:17:04;;;;;;;7.03;4.30;;;;;;;7.72;68.87;102387.72;6215651;23;20013;-64
2022/10/09 04:19:29;;;;;;;8.18;3.90;;;;;;;7.73;68.93;102389.50;6215352;23;20017;-63
2022/10/09 04:21:54;;;;;;;5.40;3.72;;;;;;;7.73;68.09;102385.97;6215967;23;20382;-64
2022/10/09 04:24:20;;;;;;;7.30;4.30;;;;;;;7.73;68.24;102389.50;6215648;23;20020;-64
2022/10/09 04:26:45;;;;;;;7.03;4.13;;;;;;;7.75;67.43;102385.25;6215837;23;20087;-64
2022/10/09 04:29:11;;;;;;;7.22;3.90;;;;;;;7.77;68.53;102387.94;6214016;23;20015;-65
2022/10/09 04:31:36;;;;;;;6.80;3.97;;;;;;;7.78;68.28;102392.34;6215543;23;20080;-65
2022/10/09 04:34:01;;;;;;;8.80;4.10;;;;;;;7.82;68.50;102393.41;6189053;23;20009;-65
2022/10/09 04:36:27;;;;;;;6.53;4.40;;;;;;;7.89;67.53;102384.97;6215550;23;20032;-63
2022/10/09 04:38:52;;;;;;;6.93;4.35;;;;;;;7.95;67.37;102385.25;6215588;23;20131;-65
2022/10/09 04:41:18;;;;;;;8.65;4.38;;;;;;;8.00;68.16;102381.97;6215503;23;20136;-64
2022/10/09 04:43:43;;;;;;;6.68;4.07;;;;;;;8.04;67.55;102376.03;6215528;23;20033;-64
2022/10/09 04:46:12;;;;;;;5.93;4.00;;;;;;;7.96;67.36;102372.16;6215344;23;20016;-64
2022/10/09 04:48:42;;;;;;;12.68;3.80;;;;;;;7.96;68.16;102372.16;6215424;23;20004;-65
2022/10/09 04:51:08;;;;;;;5.18;3.90;;;;;;;7.93;68.24;102372.03;6215779;23;20031;-64
2022/10/09 04:53:35;;;;;;;7.82;3.72;;;;;;;7.94;67.14;102378.19;6215382;23;20001;-65
2022/10/09 04:56:02;;;;;;;6.63;3.70;;;;;;;7.85;67.57;102380.41;6216073;23;20426;-65
2022/10/09 04:58:29;;;;;;;6.35;3.50;;;;;;;7.75;67.87;102374.72;6217385;23;20071;-64
2022/10/09 05:00:54;;;;;;;5.03;3.53;;;;;;;7.71;67.65;102374.50;6217367;23;20082;-64
2022/10/09 05:03:19;;;;;;;4.53;3.42;;;;;;;7.64;67.93;102364.50;6217320;23;20422;-64
2022/10/09 05:05:45;;;;;;;6.03;3.53;;;;;;;7.61;68.01;102367.88;6165940;23;20366;-64
2022/10/09 05:08:10;;;;;;;5.68;3.40;;;;;;;7.60;68.09;102367.81;6216925;23;20012;-64
2022/10/09 05:10:36;;;;;;;6.60;3.53;;;;;;;7.58;68.17;102365.13;6190756;23;20040;-63
2022/10/09 05:13:01;;;;;;;5.32;3.28;;;;;;;7.54;67.34;102368.44;6217215;23;20334;-64
2022/10/09 05:15:27;;;;;;;6.70;3.35;;;;;;;7.49;67.34;102359.41;6217340;23;20052;-63
2022/10/09 05:17:52;;;;;;;6.70;4.10;;;;;;;7.55;68.41;102357.09;6217366;23;20017;-64
2022/10/09 05:20:17;;;;;;;6.65;3.95;;;;;;;7.65;68.34;102354.03;6217151;23;20020;-64
2022/10/09 05:22:43;;;;;;;6.30;4.00;;;;;;;7.72;69.29;102353.50;6217088;23;20450;-64
2022/10/09 05:25:09;;;;;;;6.05;3.60;;;;;;;7.72;69.30;102361.41;6217413;23;20012;-65
2022/10/09 05:27:34;;;;;;;6.03;3.42;;;;;;;7.70;67.71;102363.03;6217060;23;20008;-64
2022/10/09 05:30:00;;;;;;;5.50;3.70;;;;;;;7.72;67.43;102356.13;6217127;23;20403;-63
2022/10/09 05:32:25;;;;;;;4.32;3.40;;;;;;;7.75;67.18;102352.72;6217115;23;20015;-64
2022/10/09 05:34:50;;;;;;;10.02;3.80;;;;;;;7.73;68.41;102362.31;6216960;23;20011;-65
2022/10/09 05:37:16;;;;;;;6.90;4.07;;;;;;;7.75;68.66;102360.63;6215069;23;20012;-63
2022/10/09 05:39:41;;;;;;;9.60;4.60;;;;;;;7.75;68.55;102355.38;6217214;23;20070;-64
2022/10/09 05:42:06;;;;;;;12.77;4.43;;;;;;;7.68;67.66;102353.31;6216917;23;20362;-63
2022/10/09 05:44:32;;;;;;;8.55;4.25;;;;;;;7.67;69.70;102352.41;6216948;23;20430;-63
2022/10/09 05:46:57;;;;;;;8.75;4.60;;;;;;;7.67;69.37;102357.66;6190317;23;20039;-63
2022/10/09 05:49:22;;;;;;;9.70;4.55;;;;;;;7.68;69.51;102353.31;6216831;23;20043;-65
2022/10/09 05:51:48;;;;;;;8.68;4.65;;;;;;;7.66;68.83;102352.31;6216931;23;20020;-65
2022/10/09 05:54:15;;;;;;;9.48;5.00;;;;;;;7.67;70.18;102354.13;6216798;23;20076;-62
2022/10/09 05:56:43;;;;;;;10.00;4.30;;;;;;;7.66;68.76;102352.31;6215250;23;20004;-63
2022/10/09 05:59:13;;;;;;;7.82;4.80;;;;;;;7.62;69.32;102348.63;6216848;23;20001;-64
2022/10/09 06:01:48;;;;;;;8.02;4.25;;;;;;;7.63;69.65;102353.09;6216734;23;20330;-63
2022/10/09 06:04:19;;;;;;;9.77;4.68;;;;;;;7.70;70.76;102355.16;6216626;23;20004;-64
2022/10/09 06:06:47;;;;;;;8.43;4.63;;;;;;;7.75;68.64;102352.72;6216464;23;20079;-63
2022/10/09 06:09:14;;;;;;;14.35;4.70;;;;;;;7.77;70.98;102358.97;6216907;23;20000;-65
2022/10/09 06:11:40;;;;;;;10.00;4.85;;;;;;;7.82;71.20;102354.81;6216616;23;20001;-64
2022/10/09 06:14:08;;;;;;;10.95;5.07;;;;;;;7.93;70.72;102350.06;6216644;23;20001;-64
2022/10/09 06:16:37;;;;;;;13.48;4.78;;;;;;;7.96;69.76;102356.34;6216503;23;20017;-63
2022/10/09 06:19:04;;;;;;;11.82;5.18;;;;;;;7.89;70.19;102358.66;6216272;23;20076;-64
2022/10/09 06:21:29;;;;;;;11.45;4.95;;;;;;;7.95;70.86;102353.66;6216447;23;20074;-65
2022/10/09 06:23:57;;;;;;;10.77;4.93;;;;;;;8.02;71.80;102361.91;6216614;23;20032;-63
2022/10/09 06:26:23;;;;;;;11.55;4.90;;;;;;;8.06;72.00;102355.06;6216385;23;20004;-63
2022/10/09 06:28:49;;;;;;;11.82;4.93;;;;;;;8.13;71.72;102364.13;6216487;23;20015;-64
2022/10/09 06:31:24;;;;;;;8.85;4.80;;;;;;;8.18;71.90;102354.69;6216762;23;20087;-64
2022/10/09 06:33:50;;;;;;;11.45;4.65;;;;;;;8.33;72.29;102358.00;6216402;23;20423;-64
2022/10/09 06:36:19;;;;;;;10.48;5.20;;;;;;;8.50;72.13;102356.16;6216778;23;20009;-64
2022/10/09 06:38:45;;;;;;;11.90;5.38;;;;;;;8.65;71.00;102351.56;6215966;23;20439;-65
2022/10/09 06:41:12;;;;;;;12.55;4.85;;;;;;;8.84;70.94;102360.22;6190034;23;20008;-64
2022/10/09 06:43:38;;;;;;;9.55;5.30;;;;;;;8.97;70.94;102359.91;6216309;23;20001;-64
2022/10/09 06:46:10;;;;;;;9.60;4.93;;;;;;;9.15;70.27;102363.28;6216096;23;20008;-64
2022/10/09 06:48:37;;;;;;;9.70;5.65;;;;;;;9.32;70.06;102355.16;6216187;23;20483;-64
2022/10/09 06:51:06;;;;;;;9.43;4.88;;;;;;;9.48;69.49;102362.84;6216576;23;20080;-65
2022/10/09 06:53:41;;;;;;;9.25;5.07;;;;;;;9.65;69.20;102366.16;6214662;23;20316;-65
2022/10/09 06:56:07;;;;;;;7.35;5.57;;;;;;;9.77;69.12;102358.72;6216311;23;20431;-64
2022/10/09 06:58:33;;;;;;;7.65;5.10;;;;;;;9.89;68.74;102358.25;6216445;23;20004;-65
2022/10/09 07:01:02;;;;;;;10.75;5.32;;;;;;;10.01;68.41;102362.25;6216014;23;20019;-63
2022/10/09 07:03:27;;;;;;;10.77;5.22;;;;;;;10.09;68.19;102351.09;6215751;23;20079;-65
2022/10/09 07:05:53;;;;;;;8.60;5.05;;;;;;;10.22;68.14;102348.94;6216070;23;20098;-63
2022/10/09 07:08:19;;;;;;;8.35;5.18;;;;;;;10.35;68.04;102360.00;6215716;23;20016;-62
2022/10/09 07:10:44;;;;;;;13.40;5.47;;;;;;;10.51;67.89;102351.78;6216002;23;20008;-64
2022/10/09 07:13:10;;;;;;;9.43;5.15;;;;;;;10.62;67.26;102355.72;6215992;23;20008;-62
2022/10/09 07:15:35;;;;;;;9.65;5.10;;;;;;;10.74;67.31;102361.38;6216265;23;20009;-64
2022/10/09 07:18:02;;;;;;;9.48;5.13;;;;;;;10.87;67.06;102360.06;6215596;23;20013;-65
2022/10/09 07:20:27;;;;;;;12.07;6.85;;;;;;;10.97;67.16;102351.59;6215878;23;20092;-64
2022/10/09 07:22:53;;;;;;;13.23;6.78;;;;;;;11.09;66.31;102350.19;6215973;23;20080;-63
2022/10/09 07:25:18;;;;;;;14.93;6.93;;;;;;;11.27;66.79;102358.75;6215970;23;20008;-65
2022/10/09 07:27:43;;;;;;;10.18;5.25;;;;;;;11.50;67.01;102364.75;6215795;23;20005;-65
2022/10/09 07:30:10;;;;;;;7.82;4.93;;;;;;;11.69;66.56;102356.56;6215938;23;20316;-62
2022/10/09 07:32:35;;;;;;;10.63;5.35;;;;;;;11.73;65.31;102358.44;6215842;23;20005;-64
2022/10/09 07:35:00;;;;;;;8.93;5.50;;;;;;;11.88;65.47;102355.38;6189509;23;20059;-65
2022/10/09 07:37:26;;;;;;;10.57;5.22;;;;;;;11.97;65.88;102357.38;6215677;23;20388;-64
2022/10/09 07:39:51;;;;;;;10.25;5.20;;;;;;;12.13;65.03;102351.69;6215706;23;20020;-62
2022/10/09 07:42:16;;;;;;;13.93;5.05;;;;;;;12.25;65.06;102357.34;6215897;23;20062;-63
2022/10/09 07:44:42;;;;;;;11.80;5.50;;;;;;;12.26;64.87;102353.81;6215899;23;20312;-62
2022/10/09 07:47:07;;;;;;;9.15;5.00;;;;;;;12.38;65.28;102347.97;6216028;23;20009;-62
2022/10/09 07:49:32;;;;;;;10.15;5.15;;;;;;;12.46;65.03;102350.81;6215796;23;20004;-64
2022/10/09 07:51:58;;;;;;;11.80;5.00;;;;;;;12.54;65.20;102349.25;6215792;23;20215;-62
2022/10/09 07:54:23;;;;;;;12.63;5.45;;;;;;;12.72;64.45;102354.19;6215674;23;20327;-63
2022/10/09 07:56:49;;;;;;;10.65;5.20;;;;;;;12.85;64.85;102350.06;6215720;23;20009;-65
2022/10/09 07:59:15;;;;;;;11.07;5.10;;;;;;;13.10;63.73;102362.19;6215736;23;20461;-64
2022/10/09 08:01:40;;;;;;;12.98;5.50;;;;;;;13.33;63.41;102346.88;6215674;23;20008;-63
2022/10/09 08:04:07;;;;;;;11.30;5.13;;;;;;;13.59;63.00;102358.09;6216044;23;20378;-64
2022/10/09 08:06:33;;;;;;;10.00;4.95;;;;;;;13.77;62.75;102347.88;6216029;23;20009;-64
2022/10/09 08:09:00;;;;;;;10.63;5.13;;;;;;;13.83;62.06;102349.75;6215373;23;20427;-66
2022/10/09 08:11:28;;;;;;;13.95;5.28;;;;;;;13.87;62.00;102341.88;6215684;23;20435;-65
2022/10/09 08:13:53;;;;;;;10.27;5.00;;;;;;;14.04;61.75;102337.81;6215977;23;20009;-63
2022/10/09 08:16:20;;;;;;;14.60;5.25;;;;;;;14.31;61.92;102335.69;6215723;23;20040;-65
2022/10/09 08:18:46;;;;;;;10.38;5.07;;;;;;;14.58;61.42;102344.19;6215258;23;20013;-64
2022/10/09 08:21:14;;;;;;;11.40;5.40;;;;;;;14.80;61.23;102333.94;6215554;23;20443;-64
2022/10/09 08:23:40;;;;;;;10.43;5.30;;;;;;;15.13;60.11;102337.16;6215583;23;20320;-65
2022/10/09 08:26:13;;;;;;;12.55;5.43;;;;;;;15.08;59.21;102333.53;6215479;23;20000;-63
2022/10/09 08:28:38;;;;;;;8.13;4.97;;;;;;;15.18;59.79;102330.13;6215856;23;20008;-63
2022/10/09 08:31:15;;;;;;;10.80;5.10;;;;;;;15.46;59.58;102330.53;6217046;23;20012;-65
2022/10/09 08:33:41;;;;;;;13.23;5.30;;;;;;;15.64;58.71;102327.25;6217582;23;20004;-63
2022/10/09 08:36:09;;;;;;;10.00;5.45;;;;;;;15.64;58.87;102324.59;6217624;23;20019;-62
2022/10/09 08:38:35;;;;;;;10.18;5.30;;;;;;;15.90;57.33;102316.97;6217413;23;20000;-63
2022/10/09 08:41:40;;;;;;;12.82;5.22;;;;;;;16.12;57.79;102318.13;6190962;23;20009;-64
2022/10/09 08:44:13;;;;;;;11.32;5.25;;;;;;;16.59;56.76;102310.59;6217612;23;20009;-64
2022/10/09 08:46:46;;;;;;;10.75;5.40;;;;;;;16.93;55.31;102310.94;6217630;23;20015;-66
2022/10/09 08:49:24;;;;;;;11.82;5.53;;;;;;;16.92;54.20;102314.50;6217460;23;20142;-64
2022/10/09 08:51:51;;;;;;;15.35;5.10;;;;;;;16.78;54.08;102315.25;6192825;23;20043;-63
2022/10/09 08:54:34;;;;;;;13.68;5.18;;;;;;;16.67;54.76;102316.03;6217736;23;20016;-64
2022/10/09 08:57:05;;;;;;;12.10;5.40;;;;;;;16.59;54.40;102307.03;6217347;23;20061;-62
2022/10/09 08:59:30;;;;;;;10.70;4.97;;;;;;;16.70;54.47;102300.94;6217378;23;20004;-64
2022/10/09 09:02:14;;;;;;;10.63;5.00;;;;;;;16.84;54.74;102298.41;6217160;23;20016;-63
2022/10/09 09:05:18;;;;;;;15.30;4.90;;;;;;;16.84;53.48;102303.75;6217608;23;20013;-62
2022/10/09 09:08:10;;;;;;;13.18;5.00;;;;;;;17.01;53.67;102299.44;6198242;23;20427;-63
2022/10/09 09:10:42;;;;;;;10.40;4.40;;;;;;;17.35;51.66;102294.31;6216962;23;20012;-64
2022/10/09 09:13:16;;;;;;;12.18;4.80;;;;;;;17.48;50.88;102288.16;6217377;23;20084;-64
2022/10/09 09:16:03;;;;;;;10.00;4.65;;;;;;;17.48;49.78;102284.59;6217082;23;20362;-63
2022/10/09 09:18:28;;;;;;;12.88;4.90;;;;;;;17.48;49.84;102288.16;6217117;23;20079;-64
2022/10/09 09:20:57;;;;;;;13.90;4.75;;;;;;;17.50;50.59;102288.16;6215547;23;20032;-62
2022/10/09 09:23:30;;;;;;;15.05;4.90;;;;;;;17.58;51.12;102283.75;6217006;23;20445;-62
2022/10/09 09:25:55;;;;;;;12.75;4.63;;;;;;;17.57;49.46;102286.41;6217360;23;20028;-64
2022/10/09 09:28:29;;;;;;;13.07;4.53;;;;;;;17.56;49.92;102276.59;6217348;23;20331;-65
2022/10/09 09:31:07;;;;;;;11.20;4.60;;;;;;;17.56;49.98;102271.25;6217174;23;20016;-64
2022/10/09 09:33:46;;;;;;;12.60;5.00;;;;;;;17.43;50.73;102257.84;6217353;23;20012;-65
2022/10/09 09:36:30;;;;;;;14.20;4.70;;;;;;;17.64;50.53;102250.78;6217026;23;20335;-64
2022/10/09 09:38:55;;;;;;;9.60;4.50;;;;;;;17.81;49.38;102253.56;6216889;23;20054;-64
2022/10/09 09:41:21;;;;;;;10.93;4.97;;;;;;;17.81;49.75;102242.88;6214995;23;20005;-63
2022/10/09 09:43:46;;;;;;;11.05;4.72;;;;;;;18.01;50.01;102246.50;6217237;23;20123;-64
2022/10/09 09:46:18;;;;;;;9.05;4.80;;;;;;;18.30;48.92;102241.19;6216771;23;20431;-65
2022/10/09 09:48:47;;;;;;;9.35;4.45;;;;;;;18.87;48.20;102228.72;6215345;23;20009;-64
2022/10/09 09:51:28;;;;;;;11.02;4.57;;;;;;;19.21;47.25;102234.00;6216883;23;20008;-65
2022/10/09 09:53:56;;;;;;;9.63;4.18;;;;;;;19.29;45.22;102221.47;6217252;23;20012;-64
2022/10/09 09:56:38;;;;;;;14.68;4.72;;;;;;;19.33;46.44;102214.31;6216667;23;20008;-64
2022/10/09 09:59:05;;;;;;;10.98;4.78;;;;;;;19.42;45.15;102216.97;6217176;23;20004;-64
2022/10/09 10:01:31;;;;;;;10.02;4.53;;;;;;;19.73;45.07;102217.75;6217044;23;20080;-63
2022/10/09 10:03:59;;;;;;;14.95;4.82;;;;;;;19.90;45.53;102209.59;6216675;23;20030;-65
2022/10/09 10:06:29;;;;;;;9.55;4.07;;;;;;;20.22;43.92;102214.78;6190065;23;20095;-63
2022/10/09 10:09:03;;;;;;;8.52;4.30;;;;;;;20.51;43.04;102206.47;6214820;23;20011;-62
2022/10/09 10:11:30;;;;;;;10.05;4.47;;;;;;;20.73;42.22;102201.84;6216617;23;20486;-62
2022/10/09 10:13:56;;;;;;;9.13;4.00;;;;;;;20.99;42.14;102206.94;6216581;23;20423;-65
2022/10/09 10:16:24;;;;;;;11.88;4.18;;;;;;;20.92;41.39;102198.03;6216561;23;20012;-66
2022/10/09 10:18:51;;;;;;;9.25;4.13;;;;;;;20.71;41.04;102203.63;6216241;23;20115;-64
2022/10/09 10:21:19;;;;;;;8.43;3.90;;;;;;;21.01;41.54;102192.56;6216936;23;20009;-64
2022/10/09 10:23:51;;;;;;;11.27;4.05;;;;;;;21.18;40.64;102200.44;6216526;23;20454;-63
2022/10/09 10:26:22;;;;;;;13.65;3.95;;;;;;;21.14;39.49;102197.81;6216821;23;20323;-63
2022/10/09 10:28:53;;;;;;;12.90;4.10;;;;;;;21.12;39.45;102191.56;6216439;23;20007;-64
2022/10/09 10:31:47;;;;;;;11.90;3.90;;;;;;;20.74;41.35;102193.75;6216867;23;20004;-65
2022/10/09 10:34:21;;;;;;;10.07;4.43;;;;;;;20.33;42.34;102191.41;6161818;23;20019;-66
2022/10/09 10:36:56;;;;;;;10.68;3.90;;;;;;;20.02;43.01;102185.38;6216476;23;20005;-64
2022/10/09 10:39:35;;;;;;;9.90;3.38;;;;;;;20.12;42.87;102176.34;6189639;23;20008;-64
2022/10/09 10:42:08;;;;;;;10.80;3.80;;;;;;;20.16;42.38;102172.75;6216477;23;20086;-64
2022/10/09 10:44:46;;;;;;;10.05;3.90;;;;;;;20.38;42.04;102164.50;6216370;23;20008;-63
2022/10/09 10:47:18;;;;;;;8.30;3.45;;;;;;;20.62;41.07;102163.44;6216508;23;20323;-62
2022/10/09 10:49:43;;;;;;;7.68;3.40;;;;;;;20.74;41.86;102160.63;6216383;23;20474;-65
2022/10/09 10:52:33;;;;;;;8.90;3.40;;;;;;;21.06;40.74;102154.00;6216336;23;20008;-64
2022/10/09 10:55:17;;;;;;;9.55;3.47;;;;;;;21.34;40.67;102157.28;6215918;23;20323;-64
2022/10/09 10:58:11;;;;;;;7.50;3.33;;;;;;;21.38;40.33;102153.63;6216452;23;19997;-65
2022/10/09 11:00:42;;;;;;;10.40;3.42;;;;;;;21.53;40.03;102131.00;6216607;23;20019;-64
2022/10/09 11:03:13;;;;;;;6.53;3.13;;;;;;;21.73;39.64;102132.50;6216230;23;20059;-64
2022/10/09 11:05:49;;;;;;;9.83;3.60;;;;;;;21.72;39.60;102129.84;6216303;23;20079;-63
2022/10/09 11:08:38;;;;;;;9.65;3.10;;;;;;;22.03;39.20;102130.25;6216034;23;20280;-65
2022/10/09 11:11:16;;;;;;;9.48;3.35;;;;;;;21.98;37.77;102134.81;6216129;23;20013;-63
2022/10/09 11:13:58;;;;;;;7.45;3.33;;;;;;;21.91;36.96;102122.38;6216074;23;20000;-64
2022/10/09 11:16:31;;;;;;;;;;;;;;;21.84;38.24;102124.28;6216640;23;20427;-63
2022/10/09 11:19:13;;;;;;;7.47;3.40;;;;;;;21.93;38.35;102124.13;6215558;23;20210;-64
2022/10/09 11:21:48;;;;;;;7.53;3.47;;;;;;;22.05;36.28;102116.75;6216114;23;20458;-63
2022/10/09 11:24:31;;;;;;;9.65;3.70;;;;;;;21.81;36.95;102108.16;6216137;23;20433;-64
2022/10/09 11:26:57;;;;;;;8.70;3.20;;;;;;;22.14;37.62;102106.78;6215826;23;20001;-64
2022/10/09 11:29:57;;;;;;;7.60;3.47;;;;;;;21.94;38.35;102103.47;6216292;23;20008;-64
2022/10/09 11:32:37;;;;;;;8.07;3.63;;;;;;;21.67;37.29;102094.03;6215868;23;20091;-64
2022/10/09 11:35:18;;;;;;;9.77;3.88;;;;;;;21.68;37.91;102101.22;6216048;23;20005;-63
2022/10/09 11:37:52;;;;;;;11.98;3.53;;;;;;;21.81;37.26;102092.03;6215799;23;20004;-63